createdAt,value
2019-04-28T00:00:43.224Z,0.00
2019-04-28T00:01:43.213Z,0.00
2019-04-28T00:02:43.201Z,0.00
2019-04-28T00:03:43.206Z,0.00
2019-04-28T00:04:43.176Z,0.00
2019-04-28T00:05:43.165Z,0.00
2019-04-28T00:06:43.153Z,0.00
2019-04-28T00:07:43.142Z,0.00
2019-04-28T00:08:43.146Z,0.00
2019-04-28T00:09:43.118Z,0.00
2019-04-28T00:10:43.107Z,0.00
2019-04-28T00:11:43.094Z,0.00
2019-04-28T00:12:43.084Z,0.00
2019-04-28T00:13:43.097Z,0.00
2019-04-28T00:14:43.061Z,0.00
2019-04-28T00:15:43.048Z,0.00
2019-04-28T00:16:43.034Z,0.00
2019-04-28T00:17:43.026Z,0.00
2019-04-28T00:18:43.013Z,0.00
2019-04-28T00:19:43.017Z,0.00
2019-04-28T00:20:42.993Z,0.00
2019-04-28T00:21:42.980Z,0.00
2019-04-28T00:22:42.968Z,0.00
2019-04-28T00:23:42.954Z,0.00
2019-04-28T00:24:42.960Z,0.00
2019-04-28T00:25:43.546Z,0.00
2019-04-28T00:26:42.921Z,0.00
2019-04-28T00:27:42.906Z,0.00
2019-04-28T00:28:42.894Z,0.00
2019-04-28T00:29:45.944Z,0.00
2019-04-28T00:30:42.870Z,0.00
2019-04-28T00:31:42.857Z,0.00
2019-04-28T00:32:42.847Z,0.00
2019-04-28T00:33:43.550Z,0.00
2019-04-28T00:34:42.821Z,0.00
2019-04-28T00:35:42.835Z,0.00
2019-04-28T00:36:43.134Z,0.00
2019-04-28T00:37:42.786Z,0.00
2019-04-28T00:38:42.776Z,0.00
2019-04-28T00:39:42.787Z,0.00
2019-04-28T00:40:42.762Z,0.00
2019-04-28T00:41:42.743Z,0.00
2019-04-28T00:42:42.727Z,0.00
2019-04-28T00:43:42.714Z,0.00
2019-04-28T00:44:43.390Z,0.00
2019-04-28T00:45:42.692Z,0.00
2019-04-28T00:46:42.680Z,0.00
2019-04-28T00:47:42.894Z,0.00
2019-04-28T00:48:42.657Z,0.00
2019-04-28T00:49:42.664Z,0.00
2019-04-28T00:50:43.796Z,0.00
2019-04-28T00:51:42.621Z,0.00
2019-04-28T00:52:42.609Z,0.00
2019-04-28T00:53:42.597Z,0.00
2019-04-28T00:54:42.609Z,0.00
2019-04-28T00:55:42.575Z,0.00
2019-04-28T00:56:42.561Z,0.00
2019-04-28T00:57:42.550Z,0.00
2019-04-28T00:58:42.537Z,0.00
2019-04-28T00:59:53.939Z,0.00
2019-04-28T01:00:43.516Z,0.00
2019-04-28T01:01:42.673Z,0.00
2019-04-28T01:02:42.495Z,0.00
2019-04-28T01:03:42.482Z,0.00
2019-04-28T01:04:42.490Z,0.00
2019-04-28T01:05:42.457Z,0.00
2019-04-28T01:06:43.040Z,0.00
2019-04-28T01:07:42.432Z,0.00
2019-04-28T01:08:42.422Z,0.00
2019-04-28T01:09:42.426Z,0.00
2019-04-28T01:10:42.398Z,0.00
2019-04-28T01:11:42.385Z,0.00
2019-04-28T01:12:42.375Z,0.00
2019-04-28T01:13:42.363Z,0.00
2019-04-28T01:14:43.495Z,0.00
2019-04-28T01:15:42.337Z,0.00
2019-04-28T01:16:42.327Z,0.00
2019-04-28T01:17:42.313Z,0.00
2019-04-28T01:18:42.307Z,0.00
2019-04-28T01:19:42.310Z,0.00
2019-04-28T01:20:42.278Z,0.00
2019-04-28T01:21:42.268Z,0.00
2019-04-28T01:22:42.253Z,0.00
2019-04-28T01:23:42.242Z,0.00
2019-04-28T01:24:42.249Z,0.00
2019-04-28T01:25:42.222Z,0.00
2019-04-28T01:26:42.206Z,0.00
2019-04-28T01:27:42.200Z,0.00
2019-04-28T01:28:42.183Z,0.00
2019-04-28T01:29:42.195Z,0.00
2019-04-28T01:30:42.162Z,0.00
2019-04-28T01:31:42.150Z,0.00
2019-04-28T01:32:42.137Z,0.00
2019-04-28T01:33:42.126Z,0.00
2019-04-28T01:34:42.112Z,0.00
2019-04-28T01:35:42.119Z,0.00
2019-04-28T01:36:42.089Z,0.00
2019-04-28T01:37:42.079Z,0.00
2019-04-28T01:38:42.067Z,0.00
2019-04-28T01:39:42.054Z,0.00
2019-04-28T01:40:42.060Z,0.00
2019-04-28T01:41:42.032Z,0.00
2019-04-28T01:42:42.019Z,0.00
2019-04-28T01:43:42.009Z,0.00
2019-04-28T01:44:41.993Z,0.00
2019-04-28T01:45:42.003Z,0.00
2019-04-28T01:46:41.970Z,0.00
2019-04-28T01:47:41.962Z,0.00
2019-04-28T01:48:41.949Z,0.00
2019-04-28T01:49:41.936Z,0.00
2019-04-28T01:50:41.950Z,0.00
2019-04-28T01:51:41.913Z,0.00
2019-04-28T01:52:41.900Z,0.00
2019-04-28T01:53:41.886Z,0.00
2019-04-28T01:54:41.877Z,0.00
2019-04-28T01:55:41.864Z,0.00
2019-04-28T01:56:41.871Z,0.00
2019-04-28T01:57:41.845Z,0.00
2019-04-28T01:58:41.831Z,0.00
2019-04-28T01:59:41.817Z,0.00
2019-04-28T02:00:41.806Z,0.00
2019-04-28T02:01:41.818Z,0.00
2019-04-28T02:02:41.783Z,0.00
2019-04-28T02:03:41.771Z,0.00
2019-04-28T02:04:41.758Z,0.00
2019-04-28T02:05:41.745Z,0.00
2019-04-28T02:06:41.738Z,0.00
2019-04-28T02:07:41.742Z,0.00
2019-04-28T02:08:41.712Z,0.00
2019-04-28T02:09:41.700Z,0.00
2019-04-28T02:10:41.688Z,0.00
2019-04-28T02:11:41.675Z,0.00
2019-04-28T02:12:41.737Z,0.00
2019-04-28T02:13:41.652Z,0.00
2019-04-28T02:14:41.642Z,0.00
2019-04-28T02:15:41.628Z,0.00
2019-04-28T02:16:41.615Z,0.00
2019-04-28T02:17:41.605Z,0.00
2019-04-28T02:18:41.614Z,0.00
2019-04-28T02:19:41.582Z,0.00
2019-04-28T02:20:41.573Z,0.00
2019-04-28T02:21:41.558Z,0.00
2019-04-28T02:22:41.548Z,0.00
2019-04-28T02:23:41.552Z,0.00
2019-04-28T02:24:41.528Z,0.00
2019-04-28T02:25:41.512Z,0.00
2019-04-28T02:26:41.500Z,0.00
2019-04-28T02:27:41.487Z,0.00
2019-04-28T02:28:41.493Z,0.00
2019-04-28T02:29:41.817Z,0.00
2019-04-28T02:30:48.922Z,0.00
2019-04-28T02:31:42.439Z,0.00
2019-04-28T02:32:41.429Z,0.00
2019-04-28T02:33:41.440Z,0.00
2019-04-28T02:34:41.549Z,0.00
2019-04-28T02:35:42.001Z,0.00
2019-04-28T02:36:41.384Z,0.00
2019-04-28T02:37:41.371Z,0.00
2019-04-28T02:38:41.658Z,0.00
2019-04-28T02:39:41.487Z,0.00
2019-04-28T02:40:41.335Z,0.00
2019-04-28T02:41:41.337Z,0.00
2019-04-28T02:42:41.336Z,0.00
2019-04-28T02:43:41.299Z,0.00
2019-04-28T02:44:41.328Z,0.00
2019-04-28T02:45:41.522Z,0.00
2019-04-28T02:46:41.262Z,0.00
2019-04-28T02:47:42.126Z,0.00
2019-04-28T02:48:41.238Z,0.00
2019-04-28T02:49:41.228Z,0.00
2019-04-28T02:50:41.305Z,0.00
2019-04-28T02:51:41.207Z,0.00
2019-04-28T02:52:41.575Z,0.00
2019-04-28T02:53:41.180Z,0.00
2019-04-28T02:54:41.170Z,0.00
2019-04-28T02:55:41.446Z,0.00
2019-04-28T02:56:43.750Z,0.00
2019-04-28T02:57:41.134Z,0.00
2019-04-28T02:58:41.710Z,0.00
2019-04-28T02:59:44.812Z,0.00
2019-04-28T03:00:52.616Z,0.00
2019-04-28T03:01:42.083Z,0.00
2019-04-28T03:02:41.641Z,0.00
2019-04-28T03:03:41.115Z,0.00
2019-04-28T03:04:41.144Z,0.00
2019-04-28T03:05:41.402Z,0.00
2019-04-28T03:06:41.043Z,0.00
2019-04-28T03:07:41.289Z,0.00
2019-04-28T03:08:41.006Z,0.00
2019-04-28T03:09:40.992Z,0.00
2019-04-28T03:10:41.331Z,0.00
2019-04-28T03:11:43.011Z,0.00
2019-04-28T03:12:41.589Z,0.00
2019-04-28T03:13:41.350Z,0.00
2019-04-28T03:14:44.105Z,0.00
2019-04-28T03:15:41.542Z,0.00
2019-04-28T03:16:41.239Z,0.00
2019-04-28T03:17:41.103Z,0.00
2019-04-28T03:18:41.425Z,0.00
2019-04-28T03:19:41.647Z,0.00
2019-04-28T03:20:41.776Z,0.00
2019-04-28T03:21:41.670Z,0.00
2019-04-28T03:22:41.176Z,0.00
2019-04-28T03:23:40.852Z,0.00
2019-04-28T03:24:41.432Z,0.00
2019-04-28T03:25:41.013Z,0.00
2019-04-28T03:26:41.451Z,0.00
2019-04-28T03:27:40.779Z,0.00
2019-04-28T03:28:41.536Z,0.00
2019-04-28T03:29:40.753Z,0.00
2019-04-28T03:30:43.860Z,0.00
2019-04-28T03:32:03.881Z,0.00
2019-04-28T03:32:52.151Z,0.00
2019-04-28T03:33:48.572Z,0.00
2019-04-28T03:34:43.553Z,0.00
2019-04-28T03:35:43.967Z,0.00
2019-04-28T03:36:41.062Z,0.00
2019-04-28T03:37:41.363Z,0.00
2019-04-28T03:38:40.785Z,0.00
2019-04-28T03:39:40.689Z,4.00
2019-04-28T03:40:41.454Z,4.00
2019-04-28T03:41:40.842Z,4.00
2019-04-28T03:42:41.175Z,4.00
2019-04-28T03:43:40.881Z,4.00
2019-04-28T03:44:41.407Z,8.00
2019-04-28T03:45:41.157Z,4.00
2019-04-28T03:46:41.330Z,8.00
2019-04-28T03:47:40.962Z,8.00
2019-04-28T03:48:41.070Z,8.00
2019-04-28T03:49:43.197Z,12.00
2019-04-28T03:50:41.407Z,12.00
2019-04-28T03:51:40.837Z,16.00
2019-04-28T03:52:41.459Z,16.00
2019-04-28T03:53:41.132Z,24.00
2019-04-28T03:54:41.174Z,24.00
2019-04-28T03:55:41.599Z,28.00
2019-04-28T03:56:41.267Z,32.00
2019-04-28T03:57:41.142Z,40.00
2019-04-28T03:58:40.820Z,44.00
2019-04-28T03:59:43.057Z,52.00
2019-04-28T04:00:40.999Z,60.00
2019-04-28T04:01:55.428Z,68.00
2019-04-28T04:02:41.501Z,76.00
2019-04-28T04:03:41.664Z,84.00
2019-04-28T04:04:41.503Z,96.00
2019-04-28T04:05:40.822Z,104.00
2019-04-28T04:06:40.923Z,116.00
2019-04-28T04:07:42.734Z,128.00
2019-04-28T04:08:40.937Z,140.00
2019-04-28T04:09:41.368Z,152.00
2019-04-28T04:10:40.503Z,164.00
2019-04-28T04:11:41.060Z,180.00
2019-04-28T04:12:41.252Z,200.00
2019-04-28T04:13:41.543Z,212.00
2019-04-28T04:14:41.169Z,228.00
2019-04-28T04:15:41.313Z,240.00
2019-04-28T04:16:40.701Z,256.00
2019-04-28T04:17:41.305Z,272.00
2019-04-28T04:18:40.902Z,288.00
2019-04-28T04:19:40.832Z,300.00
2019-04-28T04:20:40.925Z,316.00
2019-04-28T04:21:40.856Z,328.00
2019-04-28T04:22:41.150Z,332.00
2019-04-28T04:23:41.047Z,344.00
2019-04-28T04:24:40.537Z,348.00
2019-04-28T04:25:41.565Z,352.00
2019-04-28T04:26:40.899Z,356.00
2019-04-28T04:27:40.732Z,364.00
2019-04-28T04:28:41.655Z,360.00
2019-04-28T04:29:43.314Z,348.00
2019-04-28T04:30:40.992Z,360.00
2019-04-28T04:31:41.287Z,376.00
2019-04-28T04:32:41.132Z,396.00
2019-04-28T04:33:41.031Z,432.00
2019-04-28T04:34:40.676Z,460.00
2019-04-28T04:35:43.131Z,480.00
2019-04-28T04:36:41.738Z,496.00
2019-04-28T04:37:40.698Z,512.00
2019-04-28T04:38:43.446Z,536.00
2019-04-28T04:39:40.936Z,556.00
2019-04-28T04:40:41.220Z,568.00
2019-04-28T04:41:42.995Z,580.00
2019-04-28T04:42:40.501Z,584.00
2019-04-28T04:43:41.617Z,592.00
2019-04-28T04:44:41.489Z,604.00
2019-04-28T04:45:40.583Z,628.00
2019-04-28T04:46:41.463Z,688.00
2019-04-28T04:47:40.739Z,752.00
2019-04-28T04:48:40.778Z,788.00
2019-04-28T04:49:40.436Z,780.00
2019-04-28T04:50:41.143Z,772.00
2019-04-28T04:51:43.472Z,800.00
2019-04-28T04:52:40.387Z,836.00
2019-04-28T04:53:40.733Z,916.00
2019-04-28T04:54:40.220Z,1016.00
2019-04-28T04:55:40.861Z,1144.00
2019-04-28T04:56:40.224Z,1252.00
2019-04-28T04:57:40.786Z,1324.00
2019-04-28T04:58:40.667Z,1372.00
2019-04-28T04:59:40.206Z,1412.00
2019-04-28T05:00:40.428Z,1452.00
2019-04-28T05:01:40.694Z,1448.00
2019-04-28T05:02:41.166Z,1396.00
2019-04-28T05:03:40.639Z,1356.00
2019-04-28T05:04:39.692Z,1332.00
2019-04-28T05:05:40.351Z,1272.00
2019-04-28T05:06:41.528Z,1216.00
2019-04-28T05:07:39.720Z,1188.00
2019-04-28T05:08:40.010Z,1196.00
2019-04-28T05:09:39.617Z,1228.00
2019-04-28T05:10:40.398Z,1300.00
2019-04-28T05:11:40.105Z,1408.00
2019-04-28T05:12:40.428Z,1428.00
2019-04-28T05:13:40.002Z,1352.00
2019-04-28T05:14:39.640Z,1360.00
2019-04-28T05:15:40.097Z,1488.00
2019-04-28T05:16:39.989Z,1640.00
2019-04-28T05:17:40.189Z,1780.00
2019-04-28T05:18:41.663Z,1940.00
2019-04-28T05:19:40.139Z,2116.00
2019-04-28T05:20:40.347Z,2244.00
2019-04-28T05:21:40.092Z,2196.00
2019-04-28T05:22:39.951Z,2100.00
2019-04-28T05:23:40.027Z,2248.00
2019-04-28T05:24:40.292Z,2420.00
2019-04-28T05:25:39.623Z,2400.00
2019-04-28T05:26:40.937Z,2324.00
2019-04-28T05:27:40.370Z,2392.00
2019-04-28T05:28:44.070Z,2552.00
2019-04-28T05:29:40.339Z,2792.00
2019-04-28T05:30:42.837Z,3080.00
2019-04-28T05:31:40.092Z,3168.00
2019-04-28T05:32:45.238Z,3244.00
2019-04-28T05:33:42.120Z,3480.00
2019-04-28T05:34:46.325Z,3688.00
2019-04-28T05:35:40.263Z,3684.00
2019-04-28T05:36:43.946Z,3400.00
2019-04-28T05:37:40.522Z,3068.00
2019-04-28T05:38:40.495Z,2868.00
2019-04-28T05:39:40.518Z,2508.00
2019-04-28T05:40:39.886Z,2188.00
2019-04-28T05:41:40.006Z,2156.00
2019-04-28T05:42:39.492Z,2436.00
2019-04-28T05:43:40.457Z,2892.00
2019-04-28T05:44:40.835Z,3212.00
2019-04-28T05:45:39.688Z,3308.00
2019-04-28T05:46:40.249Z,3336.00
2019-04-28T05:47:40.762Z,3452.00
2019-04-28T05:48:40.840Z,3580.00
2019-04-28T05:49:39.702Z,3648.00
2019-04-28T05:50:40.107Z,3616.00
2019-04-28T05:51:40.216Z,3508.00
2019-04-28T05:52:40.352Z,3420.00
2019-04-28T05:53:40.291Z,3364.00
2019-04-28T05:54:40.357Z,3284.00
2019-04-28T05:55:39.423Z,3204.00
2019-04-28T05:56:39.735Z,3108.00
2019-04-28T05:57:39.757Z,3068.00
2019-04-28T05:58:40.213Z,3056.00
2019-04-28T05:59:40.356Z,3092.00
2019-04-28T06:00:39.719Z,3160.00
2019-04-28T06:01:40.586Z,3252.00
2019-04-28T06:02:39.666Z,3352.00
2019-04-28T06:03:40.516Z,3404.00
2019-04-28T06:04:40.497Z,3400.00
2019-04-28T06:05:39.463Z,3412.00
2019-04-28T06:06:40.493Z,3488.00
2019-04-28T06:07:40.500Z,3604.00
2019-04-28T06:08:40.682Z,3704.00
2019-04-28T06:09:39.910Z,3800.00
2019-04-28T06:10:39.954Z,3892.00
2019-04-28T06:11:39.820Z,4004.00
2019-04-28T06:12:40.514Z,4148.00
2019-04-28T06:13:40.171Z,4304.00
2019-04-28T06:14:40.262Z,4468.00
2019-04-28T06:15:39.654Z,4628.00
2019-04-28T06:16:40.681Z,4788.00
2019-04-28T06:17:39.686Z,4920.00
2019-04-28T06:18:39.492Z,5096.00
2019-04-28T06:19:40.264Z,5280.00
2019-04-28T06:20:40.541Z,5476.00
2019-04-28T06:21:38.727Z,5652.00
2019-04-28T06:22:38.712Z,5548.00
2019-04-28T06:23:38.701Z,5488.00
2019-04-28T06:24:38.710Z,5596.00
2019-04-28T06:25:38.680Z,5656.00
2019-04-28T06:26:38.665Z,5816.00
2019-04-28T06:27:38.656Z,5964.00
2019-04-28T06:28:38.640Z,6128.00
2019-04-28T06:29:38.653Z,6280.00
2019-04-28T06:30:38.619Z,6420.00
2019-04-28T06:31:38.606Z,6440.00
2019-04-28T06:32:38.746Z,6460.00
2019-04-28T06:33:38.585Z,6608.00
2019-04-28T06:34:38.593Z,6816.00
2019-04-28T06:35:38.564Z,7016.00
2019-04-28T06:36:38.550Z,7224.00
2019-04-28T06:37:38.536Z,7464.00
2019-04-28T06:38:38.526Z,7728.00
2019-04-28T06:39:38.531Z,7872.00
2019-04-28T06:40:38.504Z,7952.00
2019-04-28T06:41:38.489Z,8048.00
2019-04-28T06:42:38.478Z,8116.00
2019-04-28T06:43:38.467Z,8064.00
2019-04-28T06:44:38.474Z,8044.00
2019-04-28T06:45:38.445Z,8164.00
2019-04-28T06:46:38.432Z,8428.00
2019-04-28T06:47:38.422Z,8760.00
2019-04-28T06:48:38.409Z,9236.00
2019-04-28T06:49:38.417Z,9752.00
2019-04-28T06:50:38.394Z,10324.00
2019-04-28T06:51:38.375Z,10972.00
2019-04-28T06:52:38.362Z,11552.00
2019-04-28T06:53:38.360Z,11652.00
2019-04-28T06:54:38.359Z,11340.00
2019-04-28T06:55:38.329Z,11180.00
2019-04-28T06:56:38.410Z,11276.00
2019-04-28T06:57:38.306Z,11340.00
2019-04-28T06:58:38.293Z,11232.00
2019-04-28T06:59:38.301Z,11080.00
2019-04-28T07:00:38.270Z,10984.00
2019-04-28T07:01:38.258Z,10900.00
2019-04-28T07:02:38.246Z,10812.00
2019-04-28T07:03:38.241Z,10188.00
2019-04-28T07:04:38.240Z,10092.00
2019-04-28T07:05:38.208Z,10324.00
2019-04-28T07:06:38.199Z,10140.00
2019-04-28T07:07:38.187Z,10000.00
2019-04-28T07:08:38.173Z,9868.00
2019-04-28T07:09:38.179Z,9780.00
2019-04-28T07:10:38.150Z,9784.00
2019-04-28T07:11:38.139Z,9828.00
2019-04-28T07:12:38.125Z,9908.00
2019-04-28T07:13:38.121Z,10084.00
2019-04-28T07:14:38.123Z,10324.00
2019-04-28T07:15:38.090Z,10584.00
2019-04-28T07:16:38.079Z,10804.00
2019-04-28T07:17:38.067Z,11116.00
2019-04-28T07:18:38.061Z,11316.00
2019-04-28T07:19:38.063Z,11456.00
2019-04-28T07:20:38.051Z,11592.00
2019-04-28T07:21:38.018Z,11760.00
2019-04-28T07:22:38.008Z,11852.00
2019-04-28T07:23:37.995Z,11896.00
2019-04-28T07:24:37.984Z,11952.00
2019-04-28T07:25:37.991Z,11968.00
2019-04-28T07:26:37.965Z,11956.00
2019-04-28T07:27:37.948Z,11860.00
2019-04-28T07:28:37.936Z,11736.00
2019-04-28T07:29:37.926Z,11628.00
2019-04-28T07:30:37.928Z,11584.00
2019-04-28T07:31:37.902Z,11584.00
2019-04-28T07:32:37.934Z,11584.00
2019-04-28T07:33:37.879Z,11640.00
2019-04-28T07:34:37.881Z,11852.00
2019-04-28T07:35:37.872Z,12104.00
2019-04-28T07:36:37.841Z,12232.00
2019-04-28T07:37:37.828Z,12316.00
2019-04-28T07:38:37.823Z,12460.00
2019-04-28T07:39:37.806Z,12696.00
2019-04-28T07:40:37.810Z,13000.00
2019-04-28T07:41:37.782Z,13376.00
2019-04-28T07:42:37.809Z,13800.00
2019-04-28T07:43:37.759Z,14412.00
2019-04-28T07:44:37.748Z,15148.00
2019-04-28T07:45:37.753Z,15940.00
2019-04-28T07:46:37.727Z,16236.00
2019-04-28T07:47:37.711Z,16272.00
2019-04-28T07:48:37.700Z,16220.00
2019-04-28T07:49:37.688Z,15788.00
2019-04-28T07:50:37.692Z,16024.00
2019-04-28T07:51:37.661Z,16576.00
2019-04-28T07:52:37.652Z,16748.00
2019-04-28T07:53:37.641Z,16440.00
2019-04-28T07:54:40.029Z,16148.00
2019-04-28T07:55:37.633Z,15540.00
2019-04-28T07:56:37.750Z,15200.00
2019-04-28T07:57:37.595Z,15784.00
2019-04-28T07:58:37.580Z,16720.00
2019-04-28T07:59:37.567Z,17376.00
2019-04-28T08:00:37.576Z,16956.00
2019-04-28T08:01:37.545Z,16916.00
2019-04-28T08:02:37.533Z,15460.00
2019-04-28T08:03:48.772Z,13228.00
2019-04-28T08:04:38.508Z,13112.00
2019-04-28T08:05:37.570Z,12976.00
2019-04-28T08:06:37.485Z,14336.00
2019-04-28T08:07:37.475Z,15068.00
2019-04-28T08:08:37.462Z,15136.00
2019-04-28T08:09:37.451Z,15696.00
2019-04-28T08:10:37.456Z,16532.00
2019-04-28T08:11:37.426Z,16656.00
2019-04-28T08:12:37.414Z,16660.00
2019-04-28T08:13:37.402Z,16580.00
2019-04-28T08:14:37.392Z,17184.00
2019-04-28T08:15:37.403Z,17248.00
2019-04-28T08:17:34.309Z,18720.00
2019-04-28T08:18:34.297Z,19104.00
2019-04-28T08:19:34.286Z,18880.00
2019-04-28T08:20:34.296Z,18432.00
2019-04-28T08:21:34.261Z,17632.00
2019-04-28T08:22:34.252Z,17008.00
2019-04-28T08:23:46.276Z,16568.00
2019-04-28T08:24:35.224Z,14856.00
2019-04-28T08:25:34.240Z,12624.00
2019-04-28T08:26:36.287Z,10852.00
2019-04-28T08:27:34.190Z,10628.00
2019-04-28T08:28:34.177Z,11308.00
2019-04-28T08:29:34.164Z,13784.00
2019-04-28T08:30:34.152Z,17696.00
2019-04-28T08:31:34.159Z,21056.00
2019-04-28T08:32:34.128Z,22816.00
2019-04-28T08:33:34.118Z,21856.00
2019-04-28T08:34:34.109Z,19008.00
2019-04-28T08:35:34.093Z,16300.00
2019-04-28T08:36:34.103Z,14752.00
2019-04-28T08:37:34.069Z,15764.00
2019-04-28T08:38:34.060Z,17920.00
2019-04-28T08:39:34.057Z,19936.00
2019-04-28T08:40:34.033Z,20960.00
2019-04-28T08:41:34.044Z,21088.00
2019-04-28T08:42:34.011Z,21536.00
2019-04-28T08:43:33.998Z,22624.00
2019-04-28T08:44:33.989Z,25984.00
2019-04-28T08:45:33.977Z,29216.00
2019-04-28T08:46:33.987Z,30848.00
2019-04-28T08:47:33.954Z,32352.00
2019-04-28T08:48:33.956Z,32800.00
2019-04-28T08:49:33.927Z,33088.00
2019-04-28T08:50:33.921Z,32544.00
2019-04-28T08:51:33.925Z,31488.00
2019-04-28T08:52:33.894Z,28032.00
2019-04-28T08:53:33.883Z,26112.00
2019-04-28T08:54:33.876Z,21504.00
2019-04-28T08:55:33.858Z,15696.00
2019-04-28T08:56:33.866Z,13304.00
2019-04-28T08:57:33.835Z,9076.00
2019-04-28T08:58:33.826Z,10656.00
2019-04-28T08:59:33.811Z,11604.00
2019-04-28T09:00:33.802Z,16040.00
2019-04-28T09:01:33.809Z,18816.00
2019-04-28T09:02:33.777Z,23040.00
2019-04-28T09:03:33.767Z,30784.00
2019-04-28T09:04:33.757Z,39520.00
2019-04-28T09:05:33.747Z,55008.00
2019-04-28T09:06:33.750Z,47040.00
2019-04-28T09:07:33.718Z,45376.00
2019-04-28T09:08:33.706Z,48096.00
2019-04-28T09:09:33.695Z,54624.00
2019-04-28T09:10:33.690Z,42656.00
2019-04-28T09:11:33.696Z,45472.00
2019-04-28T09:12:33.661Z,37984.00
2019-04-28T09:13:33.647Z,38048.00
2019-04-28T09:14:33.635Z,39136.00
2019-04-28T09:15:33.626Z,37600.00
2019-04-28T09:16:33.632Z,44096.00
2019-04-28T09:17:33.601Z,57568.00
2019-04-28T09:18:33.588Z,46208.00
2019-04-28T09:19:33.580Z,62624.00
2019-04-28T09:20:33.568Z,62688.00
2019-04-28T09:21:33.576Z,72800.00
2019-04-28T09:22:33.542Z,54144.00
2019-04-28T09:23:33.531Z,61248.00
2019-04-28T09:24:33.524Z,70240.00
2019-04-28T09:25:33.507Z,80320.00
2019-04-28T09:26:33.514Z,71680.00
2019-04-28T09:27:33.483Z,90400.00
2019-04-28T09:28:33.476Z,70144.00
2019-04-28T09:29:33.467Z,54208.00
2019-04-28T09:30:33.449Z,94208.00
2019-04-28T09:31:33.453Z,101792.00
2019-04-28T09:32:33.430Z,128896.00
2019-04-28T09:33:33.415Z,99328.00
2019-04-28T09:34:33.404Z,129152.00
2019-04-28T09:35:33.391Z,103744.00
2019-04-28T09:36:33.406Z,59072.00
2019-04-28T09:37:33.368Z,33888.00
2019-04-28T09:38:33.355Z,27680.00
2019-04-28T09:39:33.346Z,22656.00
2019-04-28T09:40:33.334Z,18752.00
2019-04-28T09:41:33.340Z,17376.00
2019-04-28T09:42:33.310Z,18368.00
2019-04-28T09:43:33.301Z,20480.00
2019-04-28T09:44:33.288Z,21952.00
2019-04-28T09:45:33.274Z,22304.00
2019-04-28T09:46:33.286Z,21280.00
2019-04-28T09:47:33.257Z,19840.00
2019-04-28T09:48:33.241Z,17824.00
2019-04-28T09:49:33.232Z,15904.00
2019-04-28T09:50:33.218Z,14208.00
2019-04-28T09:51:33.231Z,13228.00
2019-04-28T09:52:33.191Z,13192.00
2019-04-28T09:53:33.183Z,13428.00
2019-04-28T09:54:33.170Z,13644.00
2019-04-28T09:55:33.159Z,13876.00
2019-04-28T09:56:33.146Z,14264.00
2019-04-28T09:57:33.154Z,14732.00
2019-04-28T09:58:33.123Z,14644.00
2019-04-28T09:59:33.112Z,13868.00
2019-04-28T10:00:33.100Z,12676.00
2019-04-28T10:01:33.090Z,11868.00
2019-04-28T10:02:33.097Z,11712.00
2019-04-28T10:03:33.064Z,11888.00
2019-04-28T10:04:41.404Z,11912.00
2019-04-28T10:05:34.044Z,12028.00
2019-04-28T10:06:33.030Z,12216.00
2019-04-28T10:07:33.035Z,12316.00
2019-04-28T10:08:33.008Z,12328.00
2019-04-28T10:09:32.994Z,12244.00
2019-04-28T10:10:32.988Z,11988.00
2019-04-28T10:11:32.970Z,11996.00
2019-04-28T10:12:32.980Z,12156.00
2019-04-28T10:13:32.948Z,12528.00
2019-04-28T10:14:32.938Z,13056.00
2019-04-28T10:15:32.924Z,13340.00
2019-04-28T10:16:32.913Z,13664.00
2019-04-28T10:17:32.917Z,14212.00
2019-04-28T10:18:32.887Z,14876.00
2019-04-28T10:19:32.877Z,15220.00
2019-04-28T10:20:32.866Z,15552.00
2019-04-28T10:21:32.851Z,16124.00
2019-04-28T10:22:32.859Z,16768.00
2019-04-28T10:23:32.830Z,17600.00
2019-04-28T10:24:32.817Z,17856.00
2019-04-28T10:25:32.807Z,17536.00
2019-04-28T10:26:32.794Z,17056.00
2019-04-28T10:27:32.831Z,16576.00
2019-04-28T10:28:32.774Z,15816.00
2019-04-28T10:29:33.017Z,15052.00
2019-04-28T10:30:32.747Z,14752.00
2019-04-28T10:31:32.732Z,15296.00
2019-04-28T10:32:32.739Z,15984.00
2019-04-28T10:33:32.720Z,16576.00
2019-04-28T10:34:32.707Z,17216.00
2019-04-28T10:35:32.735Z,17728.00
2019-04-28T10:36:32.677Z,17984.00
2019-04-28T10:37:32.682Z,18144.00
2019-04-28T10:38:32.654Z,18272.00
2019-04-28T10:39:32.640Z,17696.00
2019-04-28T10:40:32.634Z,16384.00
2019-04-28T10:41:32.617Z,15068.00
2019-04-28T10:42:32.626Z,14372.00
2019-04-28T10:43:32.592Z,14024.00
2019-04-28T10:44:32.585Z,13836.00
2019-04-28T10:45:32.568Z,13388.00
2019-04-28T10:46:32.556Z,12320.00
2019-04-28T10:47:32.568Z,10988.00
2019-04-28T10:48:32.533Z,9720.00
2019-04-28T10:49:32.522Z,8744.00
2019-04-28T10:50:32.508Z,7860.00
2019-04-28T10:51:32.502Z,7028.00
2019-04-28T10:52:32.527Z,6404.00
2019-04-28T10:53:32.476Z,6112.00
2019-04-28T10:54:32.470Z,5972.00
2019-04-28T10:55:32.456Z,5864.00
2019-04-28T10:56:32.442Z,5880.00
2019-04-28T10:57:32.429Z,6144.00
2019-04-28T10:58:32.441Z,6684.00
2019-04-28T10:59:32.403Z,7468.00
2019-04-28T11:00:32.392Z,7784.00
2019-04-28T11:01:32.379Z,7536.00
2019-04-28T11:02:32.368Z,7256.00
2019-04-28T11:03:32.375Z,7196.00
2019-04-28T11:04:32.345Z,7048.00
2019-04-28T11:05:32.334Z,7192.00
2019-04-28T11:06:32.326Z,7504.00
2019-04-28T11:07:32.312Z,7696.00
2019-04-28T11:08:32.316Z,8068.00
2019-04-28T11:09:32.287Z,8712.00
2019-04-28T11:10:32.275Z,9376.00
2019-04-28T11:11:32.316Z,9840.00
2019-04-28T11:12:32.270Z,10368.00
2019-04-28T11:13:32.264Z,11088.00
2019-04-28T11:14:32.233Z,11940.00
2019-04-28T11:15:32.222Z,12656.00
2019-04-28T11:16:32.207Z,13560.00
2019-04-28T11:17:32.198Z,14628.00
2019-04-28T11:18:32.260Z,15844.00
2019-04-28T11:19:32.173Z,17056.00
2019-04-28T11:20:32.164Z,17856.00
2019-04-28T11:21:32.147Z,18464.00
2019-04-28T11:22:32.139Z,19008.00
2019-04-28T11:23:32.148Z,19616.00
2019-04-28T11:24:32.115Z,19552.00
2019-04-28T11:25:32.103Z,19776.00
2019-04-28T11:26:32.091Z,20288.00
2019-04-28T11:27:32.079Z,20256.00
2019-04-28T11:28:32.086Z,20352.00
2019-04-28T11:29:32.057Z,20640.00
2019-04-28T11:30:32.044Z,21120.00
2019-04-28T11:31:32.032Z,21696.00
2019-04-28T11:32:32.021Z,22240.00
2019-04-28T11:33:32.027Z,22784.00
2019-04-28T11:34:31.998Z,23520.00
2019-04-28T11:35:31.993Z,24672.00
2019-04-28T11:36:31.974Z,26496.00
2019-04-28T11:37:31.962Z,30336.00
2019-04-28T11:38:31.967Z,38848.00
2019-04-28T11:39:31.939Z,40704.00
2019-04-28T11:40:31.923Z,41056.00
2019-04-28T11:41:31.911Z,43424.00
2019-04-28T11:42:31.903Z,46752.00
2019-04-28T11:43:31.910Z,46432.00
2019-04-28T11:44:31.880Z,48512.00
2019-04-28T11:45:31.866Z,44704.00
2019-04-28T11:46:31.853Z,42240.00
2019-04-28T11:47:31.842Z,40576.00
2019-04-28T11:48:31.850Z,40160.00
2019-04-28T11:49:31.819Z,40768.00
2019-04-28T11:50:31.808Z,42400.00
2019-04-28T11:51:31.795Z,45408.00
2019-04-28T11:52:31.781Z,47232.00
2019-04-28T11:53:31.787Z,49504.00
2019-04-28T11:54:31.759Z,54720.00
2019-04-28T11:55:31.745Z,58816.00
2019-04-28T11:56:41.203Z,64096.00
2019-04-28T11:57:32.724Z,59040.00
2019-04-28T11:58:31.731Z,46144.00
2019-04-28T11:59:31.699Z,39840.00
2019-04-28T12:00:31.694Z,35072.00
2019-04-28T12:01:31.678Z,31808.00
2019-04-28T12:02:31.667Z,29120.00
2019-04-28T12:03:31.674Z,27968.00
2019-04-28T12:04:31.646Z,28832.00
2019-04-28T12:05:34.619Z,29120.00
2019-04-28T12:06:31.621Z,29824.00
2019-04-28T12:07:31.607Z,30016.00
2019-04-28T12:08:31.623Z,29312.00
2019-04-28T12:09:31.594Z,29024.00
2019-04-28T12:10:31.572Z,28064.00
2019-04-28T12:11:31.560Z,27616.00
2019-04-28T12:12:31.549Z,27040.00
2019-04-28T12:13:31.539Z,27328.00
2019-04-28T12:14:31.544Z,26976.00
2019-04-28T12:15:31.514Z,25792.00
2019-04-28T12:16:31.500Z,24896.00
2019-04-28T12:17:31.492Z,24448.00
2019-04-28T12:18:31.483Z,24192.00
2019-04-28T12:19:31.497Z,23488.00
2019-04-28T12:20:31.453Z,22944.00